Capitol Logistics 7440

Operating for MZN



KTPA
Tampa International Airport
Tampa, Florida
KPHX
Phoenix Sky Harbor International Airport
Phoenix, Arizona

Activity Log

Date Flight Route Aircraft Duration
08/19/2021 CPX7440 REMIS Q100 LEV LCH KH06E KF09C KF12A SSO J50 ITEMM HOTTT PINNG1 B752 4h 03m

Route Details

Aircraft Information
Group: North America Fleet
Types: B738,B752,B762,B763
Route Data
Distance: 1553nm
Duration: 4h 33m
Recm'd Route: SYKES8 SIMMR REMIS Q100 LEV LCH KH06E KF09C KF12A SSO J50 ITEMM HOTTT PINNG1
Origin Wx: KTPA 160753Z 00000KT 10SM BKN050 26/21 A2995 RMK AO2 SLP139 T02610211
Dest. Wx: KPHX 160751Z 05008KT 10SM CLR 23/M07 A3004 RMK AO2 SLP156 T02281072
Notes:

Financial History
Total Freight: 41,511lbs
Average Load: 41,511lbs/flt
Fuel Used: 28,370lbs
Avg. Fuel Used: 28,370lbs/flt
Fuel Expense: $8,511
Avg. Fuel Expense: $8,511
Avg. Fuel Cost: $0.30/lbs
Total Gross Income: $95,060
Pilot Pay: $119
Total Expenses: $14,169
Total Revenue: $71,899
Average Revenue: $95,060.19